createdAt,value
2022-12-02T00:02:30.750Z,102805.34
2022-12-02T00:04:59.915Z,102808.91
2022-12-02T00:07:26.593Z,102807.09
2022-12-02T00:09:53.832Z,102803.56
2022-12-02T00:12:28.110Z,102797.34
2022-12-02T00:15:00.889Z,102798.22
2022-12-02T00:17:28.149Z,102793.75
2022-12-02T00:19:55.162Z,102798.19
2022-12-02T00:22:21.651Z,102793.75
2022-12-02T00:24:48.237Z,102792.00
2022-12-02T00:27:14.908Z,102793.75
2022-12-02T00:29:41.466Z,102792.00
2022-12-02T00:32:08.049Z,102795.56
2022-12-02T00:34:34.576Z,102797.34
2022-12-02T00:37:00.986Z,102794.69
2022-12-02T00:39:27.385Z,102793.81
2022-12-02T00:41:54.139Z,102791.13
2022-12-02T00:44:39.027Z,102790.25
2022-12-02T00:47:05.988Z,102787.59
2022-12-02T00:49:32.387Z,102784.03
2022-12-02T00:51:58.853Z,102776.03
2022-12-02T00:54:25.249Z,102768.88
2022-12-02T00:56:51.795Z,102763.53
2022-12-02T00:59:18.332Z,102761.72
2022-12-02T01:01:45.127Z,102765.34
2022-12-02T01:04:12.064Z,102760.88
2022-12-02T01:06:38.927Z,102756.44
2022-12-02T01:09:05.526Z,102762.63
2022-12-02T01:11:32.011Z,102751.97
2022-12-02T01:13:58.417Z,102752.88
2022-12-02T01:16:24.924Z,102757.34
2022-12-02T01:18:51.322Z,102760.88
2022-12-02T01:21:17.809Z,102759.13
2022-12-02T01:23:44.201Z,102760.88
2022-12-02T01:26:10.702Z,102769.75
2022-12-02T01:28:37.106Z,102756.41
2022-12-02T01:31:03.662Z,102763.56
2022-12-02T01:33:31.059Z,102760.88
2022-12-02T01:35:57.630Z,102761.81
2022-12-02T01:38:24.050Z,102764.47
2022-12-02T01:40:51.592Z,102766.22
2022-12-02T01:43:18.202Z,102759.13
2022-12-02T01:45:45.402Z,102760.03
2022-12-02T01:48:12.096Z,102765.41
2022-12-02T01:50:38.736Z,102759.19
2022-12-02T01:53:05.219Z,102765.47
2022-12-02T01:55:32.280Z,102770.81
2022-12-02T01:57:58.983Z,102766.31
2022-12-02T02:00:25.912Z,102769.03
2022-12-02T02:02:52.353Z,102777.94
2022-12-02T02:05:28.291Z,102770.81
2022-12-02T02:07:57.949Z,102775.31
2022-12-02T02:10:27.569Z,102776.22
2022-12-02T02:12:55.132Z,102778.94
2022-12-02T02:15:23.443Z,102775.41
2022-12-02T02:17:50.774Z,102770.97
2022-12-02T02:20:23.628Z,102770.03
2022-12-02T02:22:55.854Z,102774.53
2022-12-02T02:25:22.762Z,102769.19
2022-12-02T02:27:56.790Z,102776.41
2022-12-02T02:30:27.119Z,102768.41
2022-12-02T02:32:54.596Z,102768.47
2022-12-02T02:35:21.651Z,102765.84
2022-12-02T02:37:50.640Z,102766.78
2022-12-02T02:40:19.125Z,102760.56
2022-12-02T02:42:50.735Z,102765.91
2022-12-02T02:45:18.624Z,102762.38
2022-12-02T02:47:45.893Z,102757.09
2022-12-02T02:50:12.850Z,102764.19
2022-12-02T02:52:40.080Z,102764.19
2022-12-02T02:55:07.621Z,102758.88
2022-12-02T02:57:36.633Z,102757.94
2022-12-02T03:00:04.252Z,102754.41
2022-12-02T03:02:32.609Z,102734.88
2022-12-02T03:04:59.384Z,102726.00
2022-12-02T03:07:26.089Z,102715.31
2022-12-02T03:09:52.949Z,102709.09
2022-12-02T03:12:20.059Z,102702.88
2022-12-02T03:14:46.832Z,102713.53
2022-12-02T03:17:14.056Z,102714.41
2022-12-02T03:19:41.863Z,102713.53
2022-12-02T03:22:09.629Z,102721.53
2022-12-02T03:24:36.652Z,102719.75
2022-12-02T03:27:04.213Z,102717.09
2022-12-02T03:29:30.814Z,102713.53
2022-12-02T03:31:59.944Z,102703.75
2022-12-02T03:34:27.509Z,102712.59
2022-12-02T03:36:54.552Z,102720.56
2022-12-02T03:39:21.255Z,102713.50
2022-12-02T03:41:48.153Z,102717.91
2022-12-02T03:44:15.543Z,102710.78
2022-12-02T03:46:43.380Z,102706.38
2022-12-02T03:49:11.669Z,102705.44
2022-12-02T03:51:38.124Z,102703.69
2022-12-02T03:54:04.759Z,102705.47
2022-12-02T03:56:37.212Z,102716.13
2022-12-02T03:59:04.063Z,102719.69
2022-12-02T04:01:30.664Z,102715.25
2022-12-02T04:03:57.283Z,102717.97
2022-12-02T04:06:23.743Z,102709.09
2022-12-02T04:08:50.172Z,102698.44
2022-12-02T04:11:16.989Z,102702.03
2022-12-02T04:13:43.370Z,102707.38
2022-12-02T04:16:09.970Z,102693.16
2022-12-02T04:18:36.498Z,102692.28
2022-12-02T04:21:03.568Z,102686.94
2022-12-02T04:23:30.047Z,102686.97
2022-12-02T04:25:56.853Z,102681.66
2022-12-02T04:28:23.234Z,102678.09
2022-12-02T04:30:49.699Z,102676.31
2022-12-02T04:33:16.221Z,102673.66
2022-12-02T04:35:42.642Z,102674.53
2022-12-02T04:38:12.291Z,102678.94
2022-12-02T04:40:39.768Z,102674.50
2022-12-02T04:43:06.587Z,102676.25
2022-12-02T04:45:33.315Z,102676.25
2022-12-02T04:47:59.857Z,102678.00
2022-12-02T04:50:26.318Z,102670.91
2022-12-02T04:52:53.288Z,102679.84
2022-12-02T04:55:19.691Z,102679.84
2022-12-02T04:57:46.162Z,102672.75
2022-12-02T05:00:13.567Z,102659.38
2022-12-02T05:02:40.100Z,102653.22
2022-12-02T05:05:07.272Z,102652.38
2022-12-02T05:07:33.745Z,102657.72
2022-12-02T05:10:00.237Z,102661.25
2022-12-02T05:12:26.666Z,102657.66
2022-12-02T05:14:53.456Z,102661.25
2022-12-02T05:17:20.207Z,102654.13
2022-12-02T05:19:46.626Z,102647.97
2022-12-02T05:22:13.138Z,102647.13
2022-12-02T05:24:40.287Z,102650.72
2022-12-02T05:27:06.814Z,102650.75
2022-12-02T05:29:33.240Z,102647.19
2022-12-02T05:31:59.653Z,102658.81
2022-12-02T05:34:29.158Z,102652.63
2022-12-02T05:36:56.014Z,102655.31
2022-12-02T05:39:22.557Z,102667.78
2022-12-02T05:41:49.776Z,102664.28
2022-12-02T05:44:21.598Z,102664.34
2022-12-02T05:46:48.882Z,102654.63
2022-12-02T05:49:19.431Z,102659.16
2022-12-02T05:51:51.682Z,102656.50
2022-12-02T05:54:22.000Z,102655.66
2022-12-02T05:56:49.324Z,102660.13
2022-12-02T05:59:19.186Z,102666.34
2022-12-02T06:01:51.526Z,102662.81
2022-12-02T06:04:28.670Z,102660.16
2022-12-02T06:06:55.902Z,102658.38
2022-12-02T06:09:28.871Z,102663.75
2022-12-02T06:11:56.081Z,102670.00
2022-12-02T06:14:25.590Z,102662.91
2022-12-02T06:17:13.350Z,102662.03
2022-12-02T06:19:53.382Z,102668.25
2022-12-02T06:22:29.254Z,102662.91
2022-12-02T06:24:59.670Z,102661.13
2022-12-02T06:27:28.243Z,102666.50
2022-12-02T06:30:05.203Z,102663.84
2022-12-02T06:32:41.674Z,102663.84
2022-12-02T06:35:24.298Z,102661.19
2022-12-02T06:37:54.206Z,102668.28
2022-12-02T06:40:28.483Z,102667.44
2022-12-02T06:42:58.905Z,102662.13
2022-12-02T06:45:31.309Z,102667.44
2022-12-02T06:48:15.914Z,102671.94
2022-12-02T06:50:45.493Z,102681.72
2022-12-02T06:53:33.817Z,102669.34
2022-12-02T06:56:06.505Z,102678.25
2022-12-02T06:58:34.938Z,102679.09
2022-12-02T07:01:27.683Z,102676.44
2022-12-02T07:04:21.009Z,102672.00
2022-12-02T07:06:51.647Z,102674.72
2022-12-02T07:09:50.950Z,102681.00
2022-12-02T07:12:23.406Z,102687.25
2022-12-02T07:14:51.043Z,102683.69
2022-12-02T07:17:31.448Z,102689.03
2022-12-02T07:20:29.763Z,102690.78
2022-12-02T07:23:00.295Z,102691.75
2022-12-02T07:25:38.740Z,102693.53
2022-12-02T07:28:37.528Z,102697.06
2022-12-02T07:31:21.345Z,102692.59
2022-12-02T07:33:48.358Z,102685.44
2022-12-02T07:36:17.296Z,102698.75
2022-12-02T07:39:05.355Z,102706.75
2022-12-02T07:41:36.244Z,102702.38
2022-12-02T07:44:04.806Z,102703.25
2022-12-02T07:46:31.302Z,102697.91
2022-12-02T07:48:57.807Z,102699.72
2022-12-02T07:51:24.916Z,102697.94
2022-12-02T07:53:51.537Z,102689.94
2022-12-02T07:56:17.983Z,102693.44
2022-12-02T07:59:10.739Z,102688.09
2022-12-02T08:01:31.032Z,102698.78
2022-12-02T08:03:57.518Z,102699.66
2022-12-02T08:06:24.210Z,102700.59
2022-12-02T08:08:50.650Z,102697.00
2022-12-02T08:11:17.135Z,102697.94
2022-12-02T08:13:44.003Z,102698.78
2022-12-02T08:16:11.679Z,102703.25
2022-12-02T08:18:38.244Z,102711.28
2022-12-02T08:21:08.814Z,102698.78
2022-12-02T08:23:35.695Z,102694.31
2022-12-02T08:26:02.216Z,102703.22
2022-12-02T08:28:28.601Z,102694.28
2022-12-02T08:30:55.165Z,102704.06
2022-12-02T08:33:22.345Z,102706.75
2022-12-02T08:35:48.899Z,102715.63
2022-12-02T08:38:15.413Z,102712.97
2022-12-02T08:40:41.840Z,102709.44
2022-12-02T08:43:08.311Z,102710.34
2022-12-02T08:45:34.744Z,102705.00
2022-12-02T08:48:01.115Z,102702.34
2022-12-02T08:50:27.670Z,102707.63
2022-12-02T08:52:58.297Z,102703.16
2022-12-02T08:55:25.510Z,102697.81
2022-12-02T08:57:52.018Z,102701.34
2022-12-02T09:00:18.643Z,102699.50
2022-12-02T09:02:45.196Z,102698.56
2022-12-02T09:05:11.812Z,102697.69
2022-12-02T09:07:38.404Z,102702.09
2022-12-02T09:10:06.536Z,102703.03
2022-12-02T09:12:33.842Z,102704.69
2022-12-02T09:15:00.265Z,102701.13
2022-12-02T09:17:26.723Z,102713.53
2022-12-02T09:19:53.235Z,102710.88
2022-12-02T09:22:19.725Z,102707.31
2022-12-02T09:24:46.154Z,102702.91
2022-12-02T09:27:12.565Z,102706.38
2022-12-02T09:29:39.156Z,102700.06
2022-12-02T09:32:05.598Z,102699.09
2022-12-02T09:34:32.534Z,102694.59
2022-12-02T09:37:01.885Z,102686.47
2022-12-02T09:39:28.536Z,102695.19
2022-12-02T09:41:55.037Z,102686.34
2022-12-02T09:44:21.593Z,102697.03
2022-12-02T09:46:48.145Z,102696.31
2022-12-02T09:49:14.752Z,102685.63
2022-12-02T09:51:41.364Z,102679.25
2022-12-02T09:54:10.196Z,102674.81
2022-12-02T09:56:36.918Z,102672.19
2022-12-02T09:59:11.696Z,102673.06
2022-12-02T10:01:40.579Z,102680.22
2022-12-02T10:04:07.204Z,102676.66
2022-12-02T10:06:33.696Z,102677.56
2022-12-02T10:09:00.174Z,102675.72
2022-12-02T10:11:32.680Z,102682.09
2022-12-02T10:13:59.812Z,102677.69
2022-12-02T10:16:29.494Z,102675.06
2022-12-02T10:19:01.167Z,102676.81
2022-12-02T10:21:27.773Z,102670.69
2022-12-02T10:24:03.624Z,102675.16
2022-12-02T10:26:46.961Z,102667.13
2022-12-02T10:29:26.003Z,102667.16
2022-12-02T10:31:55.343Z,102656.31
2022-12-02T10:34:22.753Z,102653.47
2022-12-02T10:36:49.919Z,102659.75
2022-12-02T10:39:30.253Z,102658.91
2022-12-02T10:42:10.903Z,102661.63
2022-12-02T10:44:45.648Z,102656.28
2022-12-02T10:47:14.703Z,102646.47
2022-12-02T10:49:48.953Z,102647.41
2022-12-02T10:52:16.935Z,102642.03
2022-12-02T10:54:47.674Z,102643.81
2022-12-02T10:57:22.275Z,102635.84
2022-12-02T10:59:48.822Z,102649.25
2022-12-02T11:02:25.276Z,102644.00
2022-12-02T11:04:52.977Z,102649.31
2022-12-02T11:07:22.534Z,102648.59
2022-12-02T11:09:53.755Z,102644.19
2022-12-02T11:12:52.811Z,102636.16
2022-12-02T11:15:51.790Z,102645.81
2022-12-02T11:18:30.516Z,102640.47
2022-12-02T11:21:09.034Z,102641.28
2022-12-02T11:23:35.670Z,102644.94
2022-12-02T11:26:12.620Z,102641.47
2022-12-02T11:28:38.954Z,102636.22
2022-12-02T11:31:12.224Z,102649.56
2022-12-02T11:33:53.019Z,102640.72
2022-12-02T11:36:23.944Z,102637.09
2022-12-02T11:38:53.475Z,102635.28
2022-12-02T11:41:28.014Z,102632.59
2022-12-02T11:44:00.528Z,102639.66
2022-12-02T11:46:43.432Z,102635.19
2022-12-02T11:49:33.134Z,102636.97
2022-12-02T11:52:09.213Z,102635.25
2022-12-02T11:54:38.931Z,102642.44
2022-12-02T11:57:05.992Z,102640.72
2022-12-02T11:59:36.533Z,102634.53
2022-12-02T12:02:18.102Z,102643.53
2022-12-02T12:04:45.667Z,102639.09
2022-12-02T12:07:13.045Z,102633.75
2022-12-02T12:09:39.822Z,102625.75
2022-12-02T12:12:14.140Z,102616.75
2022-12-02T12:15:01.120Z,102606.03
2022-12-02T12:17:32.243Z,102619.41
2022-12-02T12:19:58.733Z,102607.88
2022-12-02T12:22:28.098Z,102600.72
2022-12-02T12:24:54.692Z,102596.25
2022-12-02T12:27:38.154Z,102598.06
2022-12-02T12:30:06.142Z,102597.22
2022-12-02T12:32:32.668Z,102593.56
2022-12-02T12:34:59.191Z,102590.84
2022-12-02T12:37:25.644Z,102585.28
2022-12-02T12:39:52.140Z,102587.84
2022-12-02T12:42:18.551Z,102587.69
2022-12-02T12:44:44.974Z,102586.03
2022-12-02T12:47:11.447Z,102586.88
2022-12-02T12:49:37.960Z,102582.50
2022-12-02T12:52:04.667Z,102585.25
2022-12-02T12:54:31.343Z,102587.09
2022-12-02T12:56:57.827Z,102570.34
2022-12-02T12:59:24.284Z,102572.94
2022-12-02T13:01:51.056Z,102588.00
2022-12-02T13:04:17.700Z,102565.78
2022-12-02T13:06:46.843Z,102561.13
2022-12-02T13:09:14.627Z,102565.50
2022-12-02T13:11:41.401Z,102575.22
2022-12-02T13:14:08.485Z,102571.69
2022-12-02T13:16:35.316Z,102575.31
2022-12-02T13:19:02.142Z,102570.94
2022-12-02T13:21:28.628Z,102573.66
2022-12-02T13:23:55.369Z,102571.06
2022-12-02T13:26:21.747Z,102570.28
2022-12-02T13:28:52.624Z,102570.31
2022-12-02T13:31:19.856Z,102569.41
2022-12-02T13:33:46.434Z,102572.09
2022-12-02T13:36:12.865Z,102568.63
2022-12-02T13:38:39.307Z,102573.09
2022-12-02T13:41:06.215Z,102571.38
2022-12-02T13:43:32.624Z,102579.44
2022-12-02T13:45:59.127Z,102579.47
2022-12-02T13:48:25.736Z,102577.75
2022-12-02T13:50:52.146Z,102577.75
2022-12-02T13:53:18.638Z,102588.41
2022-12-02T13:55:45.087Z,102590.25
2022-12-02T13:58:11.520Z,102586.69
2022-12-02T14:00:37.998Z,102587.59
2022-12-02T14:03:04.591Z,102584.00
2022-12-02T14:05:31.056Z,102596.44
2022-12-02T14:07:57.563Z,102584.16
2022-12-02T14:10:24.469Z,102588.66
2022-12-02T14:12:50.968Z,102598.50
2022-12-02T14:15:17.393Z,102591.44
2022-12-02T14:17:43.783Z,102592.31
2022-12-02T14:20:10.880Z,102589.66
2022-12-02T14:22:37.386Z,102595.91
2022-12-02T14:25:04.060Z,102594.19
2022-12-02T14:27:30.884Z,102599.56
2022-12-02T14:29:57.584Z,102594.25
2022-12-02T14:32:24.705Z,102600.50
2022-12-02T14:34:51.662Z,102599.66
2022-12-02T14:37:19.513Z,102596.09
2022-12-02T14:39:46.096Z,102599.59
2022-12-02T14:42:12.524Z,102600.53
2022-12-02T14:44:38.909Z,102611.22
2022-12-02T14:47:05.422Z,102620.16
2022-12-02T14:49:40.908Z,102616.56
2022-12-02T14:52:08.383Z,102606.84
2022-12-02T14:54:34.808Z,102620.19
2022-12-02T14:57:01.265Z,102622.88
2022-12-02T14:59:27.674Z,102611.31
2022-12-02T15:01:54.164Z,102613.97
2022-12-02T15:04:20.719Z,102622.88
2022-12-02T15:06:47.572Z,102622.91
2022-12-02T15:09:14.727Z,102623.78
2022-12-02T15:11:41.517Z,102623.81
2022-12-02T15:14:07.940Z,102616.75
2022-12-02T15:16:34.674Z,102621.25
2022-12-02T15:19:01.191Z,102617.69
2022-12-02T15:21:27.626Z,102625.66
2022-12-02T15:23:54.148Z,102619.44
2022-12-02T15:26:20.784Z,102614.13
2022-12-02T15:28:47.332Z,102630.97
2022-12-02T15:31:17.754Z,102625.69
2022-12-02T15:33:45.281Z,102634.53
2022-12-02T15:36:11.992Z,102639.84
2022-12-02T15:38:40.849Z,102632.75
2022-12-02T15:41:07.593Z,102638.09
2022-12-02T15:43:34.692Z,102632.75
2022-12-02T15:46:01.259Z,102635.44
2022-12-02T15:48:28.110Z,102642.47
2022-12-02T15:50:55.563Z,102636.25
2022-12-02T15:53:23.062Z,102638.03
2022-12-02T15:55:50.405Z,102632.75
2022-12-02T15:58:17.056Z,102638.03
2022-12-02T16:00:43.652Z,102640.72
2022-12-02T16:03:10.123Z,102636.25
2022-12-02T16:05:36.748Z,102644.22
2022-12-02T16:08:03.336Z,102640.66
2022-12-02T16:10:29.953Z,102651.38
2022-12-02T16:12:56.395Z,102660.22
2022-12-02T16:15:22.908Z,102648.69
2022-12-02T16:17:49.784Z,102660.25
2022-12-02T16:20:16.312Z,102652.25
2022-12-02T16:22:42.821Z,102648.69
2022-12-02T16:25:09.497Z,102654.88
2022-12-02T16:27:35.915Z,102657.56
2022-12-02T16:30:02.466Z,102651.38
2022-12-02T16:32:28.907Z,102649.56
2022-12-02T16:34:55.564Z,102661.09
2022-12-02T16:37:22.996Z,102662.00
2022-12-02T16:39:49.776Z,102655.78
2022-12-02T16:42:16.355Z,102664.66
2022-12-02T16:44:43.078Z,102664.69
2022-12-02T16:47:09.812Z,102670.88
2022-12-02T16:49:36.343Z,102673.53
2022-12-02T16:52:02.781Z,102662.91
2022-12-02T16:54:29.228Z,102666.44
2022-12-02T16:56:56.556Z,102657.56
2022-12-02T16:59:23.655Z,102670.88
2022-12-02T17:01:50.376Z,102675.28
2022-12-02T17:04:16.998Z,102670.84
2022-12-02T17:06:43.499Z,102680.59
2022-12-02T17:09:10.126Z,102678.81
2022-12-02T17:11:36.580Z,102677.03
2022-12-02T17:14:03.596Z,102676.16
2022-12-02T17:16:30.187Z,102676.16
2022-12-02T17:18:56.889Z,102676.16
2022-12-02T17:21:23.354Z,102676.16
2022-12-02T17:23:49.820Z,102669.94
2022-12-02T17:26:16.524Z,102673.50
2022-12-02T17:28:43.120Z,102675.28
2022-12-02T17:31:10.696Z,102680.56
2022-12-02T17:33:37.270Z,102677.03
2022-12-02T17:36:04.227Z,102680.63
2022-12-02T17:38:30.784Z,102678.84
2022-12-02T17:41:12.539Z,102675.28
2022-12-02T17:43:39.467Z,102684.19
2022-12-02T17:46:06.689Z,102683.28
2022-12-02T17:48:33.249Z,102684.19
2022-12-02T17:50:59.722Z,102685.06
2022-12-02T17:53:26.212Z,102685.06
2022-12-02T17:55:52.701Z,102685.94
2022-12-02T17:58:19.277Z,102678.84
2022-12-02T18:00:45.824Z,102676.22
2022-12-02T18:03:12.330Z,102679.72
2022-12-02T18:05:38.914Z,102674.41
2022-12-02T18:08:05.647Z,102681.50
2022-12-02T18:10:32.207Z,102677.94
2022-12-02T18:12:58.664Z,102676.16
2022-12-02T18:15:25.145Z,102672.59
2022-12-02T18:17:51.542Z,102681.50
2022-12-02T18:20:17.978Z,102683.25
2022-12-02T18:22:44.382Z,102683.25
2022-12-02T18:25:10.836Z,102674.34
2022-12-02T18:27:37.420Z,102679.69
2022-12-02T18:30:04.367Z,102679.72
2022-12-02T18:32:30.911Z,102677.03
2022-12-02T18:34:57.396Z,102675.28
2022-12-02T18:37:23.917Z,102677.03
2022-12-02T18:39:50.502Z,102680.56
2022-12-02T18:42:16.960Z,102684.16
2022-12-02T18:44:43.563Z,102683.25
2022-12-02T18:47:10.103Z,102677.03
2022-12-02T18:49:42.117Z,102680.63
2022-12-02T18:52:09.457Z,102675.34
2022-12-02T18:54:36.086Z,102679.75
2022-12-02T18:57:02.758Z,102682.41
2022-12-02T18:59:30.001Z,102678.88
2022-12-02T19:01:56.790Z,102685.09
2022-12-02T19:04:23.677Z,102667.38
2022-12-02T19:06:50.300Z,102660.31
2022-12-02T19:09:16.744Z,102670.06
2022-12-02T19:11:43.261Z,102671.84
2022-12-02T19:14:09.855Z,102668.31
2022-12-02T19:16:36.467Z,102669.19
2022-12-02T19:19:02.949Z,102672.72
2022-12-02T19:21:29.510Z,102668.31
2022-12-02T19:23:56.005Z,102667.41
2022-12-02T19:26:23.224Z,102662.09
2022-12-02T19:28:49.805Z,102666.56
2022-12-02T19:31:16.513Z,102672.75
2022-12-02T19:33:43.076Z,102669.22
2022-12-02T19:36:09.632Z,102677.22
2022-12-02T19:38:36.205Z,102675.44
2022-12-02T19:41:03.473Z,102670.13
2022-12-02T19:43:35.196Z,102674.56
2022-12-02T19:46:01.971Z,102675.44
2022-12-02T19:48:28.538Z,102678.13
2022-12-02T19:50:55.627Z,102677.25
2022-12-02T19:53:22.150Z,102671.91
2022-12-02T19:55:48.660Z,102677.25
2022-12-02T19:58:15.128Z,102675.50
2022-12-02T20:00:41.646Z,102671.97
2022-12-02T20:03:08.302Z,102676.38
2022-12-02T20:05:34.897Z,102676.38
2022-12-02T20:08:01.503Z,102687.03
2022-12-02T20:10:28.317Z,102679.94
2022-12-02T20:12:54.841Z,102679.94
2022-12-02T20:15:21.287Z,102678.19
2022-12-02T20:17:47.748Z,102674.63
2022-12-02T20:20:15.128Z,102681.72
2022-12-02T20:22:42.277Z,102675.50
2022-12-02T20:25:09.903Z,102671.06
2022-12-02T20:27:36.470Z,102669.28
2022-12-02T20:30:04.216Z,102671.03
2022-12-02T20:32:31.704Z,102668.38
2022-12-02T20:34:58.186Z,102672.84
2022-12-02T20:37:24.628Z,102677.28
2022-12-02T20:39:51.214Z,102669.34
2022-12-02T20:42:17.684Z,102669.31
2022-12-02T20:44:48.046Z,102666.66
2022-12-02T20:47:17.423Z,102664.00
2022-12-02T20:49:43.903Z,102662.25
2022-12-02T20:52:10.367Z,102658.69
2022-12-02T20:54:36.788Z,102664.91
2022-12-02T20:57:03.340Z,102658.69
2022-12-02T20:59:29.836Z,102664.03
2022-12-02T21:01:56.353Z,102656.91
2022-12-02T21:04:22.921Z,102660.44
2022-12-02T21:06:49.474Z,102664.88
2022-12-02T21:09:16.259Z,102656.03
2022-12-02T21:11:42.768Z,102665.81
2022-12-02T21:14:09.337Z,102657.84
2022-12-02T21:16:35.898Z,102668.47
2022-12-02T21:19:02.514Z,102664.91
2022-12-02T21:21:29.101Z,102664.91
2022-12-02T21:24:01.664Z,102665.81
2022-12-02T21:26:30.149Z,102665.81
2022-12-02T21:28:56.575Z,102664.91
2022-12-02T21:31:23.091Z,102669.34
2022-12-02T21:33:49.770Z,102665.78
2022-12-02T21:36:16.268Z,102675.56
2022-12-02T21:38:42.688Z,102670.28
2022-12-02T21:41:09.197Z,102672.97
2022-12-02T21:43:35.672Z,102659.63
2022-12-02T21:46:02.301Z,102666.75
2022-12-02T21:48:28.757Z,102666.78
2022-12-02T21:50:55.280Z,102665.88
2022-12-02T21:53:21.797Z,102659.69
2022-12-02T21:55:48.419Z,102661.47
2022-12-02T21:58:14.988Z,102654.38
2022-12-02T22:00:41.704Z,102657.91
2022-12-02T22:03:13.208Z,102652.56
2022-12-02T22:05:41.227Z,102654.34
2022-12-02T22:08:07.876Z,102652.59
2022-12-02T22:10:34.787Z,102648.16
2022-12-02T22:13:01.267Z,102647.25
2022-12-02T22:15:27.843Z,102650.81
2022-12-02T22:17:54.331Z,102652.59
2022-12-02T22:20:21.171Z,102653.50
2022-12-02T22:22:47.863Z,102657.91
2022-12-02T22:25:14.403Z,102658.81
2022-12-02T22:27:40.833Z,102652.56
2022-12-02T22:30:09.531Z,102652.59
2022-12-02T22:32:36.143Z,102650.81
2022-12-02T22:35:03.839Z,102649.00
2022-12-02T22:37:30.383Z,102647.25
2022-12-02T22:39:56.856Z,102648.16
2022-12-02T22:42:23.941Z,102647.25
2022-12-02T22:44:50.673Z,102643.75
2022-12-02T22:47:17.612Z,102643.72
2022-12-02T22:49:50.081Z,102637.50
2022-12-02T22:52:16.518Z,102643.72
2022-12-02T22:54:42.939Z,102638.41
2022-12-02T22:57:09.403Z,102638.44
2022-12-02T22:59:36.023Z,102636.66
2022-12-02T23:02:02.594Z,102630.47
2022-12-02T23:04:29.145Z,102635.81
2022-12-02T23:06:55.589Z,102633.13
2022-12-02T23:09:22.092Z,102638.44
2022-12-02T23:11:48.574Z,102628.72
2022-12-02T23:14:15.032Z,102630.47
2022-12-02T23:16:41.618Z,102636.66
2022-12-02T23:19:08.168Z,102623.34
2022-12-02T23:21:34.675Z,102627.81
2022-12-02T23:24:01.208Z,102620.69
2022-12-02T23:26:27.634Z,102623.34
2022-12-02T23:28:54.075Z,102624.22
2022-12-02T23:31:20.617Z,102627.75
2022-12-02T23:33:47.247Z,102618.91
2022-12-02T23:36:13.728Z,102621.56
2022-12-02T23:38:40.259Z,102618.00
2022-12-02T23:41:06.703Z,102611.81
2022-12-02T23:43:33.838Z,102606.50
2022-12-02T23:46:00.523Z,102614.47
2022-12-02T23:48:26.992Z,102612.63
2022-12-02T23:50:53.443Z,102603.78
2022-12-02T23:53:19.952Z,102606.47
2022-12-02T23:55:46.479Z,102608.22
2022-12-02T23:58:12.970Z,102598.50
